createdAt,value
2018-05-25T00:00:27.049Z,19.70
2018-05-25T00:02:54.588Z,19.70
2018-05-25T00:05:22.175Z,19.60
2018-05-25T00:07:50.468Z,19.60
2018-05-25T00:10:18.802Z,19.50
2018-05-25T00:12:46.337Z,19.50
2018-05-25T00:15:13.900Z,19.50
2018-05-25T00:17:41.429Z,19.60
2018-05-25T00:20:09.750Z,19.50
2018-05-25T00:22:37.312Z,19.40
2018-05-25T00:25:05.410Z,19.40
2018-05-25T00:27:32.961Z,19.40
2018-05-25T00:30:00.480Z,19.40
2018-05-25T00:32:28.037Z,19.40
2018-05-25T00:34:55.565Z,19.30
2018-05-25T00:37:23.895Z,19.20
2018-05-25T00:39:51.426Z,19.10
2018-05-25T00:42:18.985Z,19.10
2018-05-25T00:44:46.508Z,19.10
2018-05-25T00:47:14.069Z,19.10
2018-05-25T00:49:41.613Z,19.00
2018-05-25T00:52:09.181Z,19.00
2018-05-25T00:54:36.713Z,19.00
2018-05-25T00:57:04.269Z,18.90
2018-05-25T00:59:31.797Z,18.90
2018-05-25T01:02:00.111Z,18.80
2018-05-25T01:04:27.641Z,18.70
2018-05-25T01:06:55.197Z,18.80
2018-05-25T01:09:23.495Z,18.70
2018-05-25T01:11:51.073Z,18.70
2018-05-25T01:14:18.622Z,18.70
2018-05-25T01:16:46.187Z,18.60
2018-05-25T01:19:13.705Z,18.60
2018-05-25T01:21:43.271Z,18.60
2018-05-25T01:24:12.075Z,18.50
2018-05-25T01:26:39.693Z,18.50
2018-05-25T01:29:07.783Z,18.50
2018-05-25T01:31:36.254Z,18.50
2018-05-25T01:34:04.588Z,18.50
2018-05-25T01:36:32.108Z,18.40
2018-05-25T01:38:59.656Z,18.40
2018-05-25T01:41:27.180Z,18.30
2018-05-25T01:43:55.498Z,18.30
2018-05-25T01:46:23.029Z,18.30
2018-05-25T01:48:51.340Z,18.30
2018-05-25T01:51:18.876Z,18.20
2018-05-25T01:53:46.435Z,18.30
2018-05-25T01:56:13.956Z,18.20
2018-05-25T01:58:41.504Z,18.20
2018-05-25T02:01:09.040Z,18.20
2018-05-25T02:03:36.595Z,18.10
2018-05-25T02:06:04.113Z,18.10
2018-05-25T02:08:32.433Z,18.00
2018-05-25T02:10:59.963Z,18.00
2018-05-25T02:13:27.511Z,18.00
2018-05-25T02:15:55.036Z,18.00
2018-05-25T02:18:22.584Z,17.90
2018-05-25T02:20:50.102Z,17.90
2018-05-25T02:23:18.419Z,17.90
2018-05-25T02:25:45.936Z,17.90
2018-05-25T02:28:14.257Z,17.80
2018-05-25T02:30:41.810Z,17.80
2018-05-25T02:33:09.330Z,17.80
2018-05-25T02:35:37.650Z,17.70
2018-05-25T02:38:05.182Z,17.60
2018-05-25T02:40:32.729Z,17.70
2018-05-25T02:43:00.247Z,17.70
2018-05-25T02:45:27.801Z,17.60
2018-05-25T02:47:55.333Z,17.60
2018-05-25T02:50:22.881Z,17.60
2018-05-25T02:52:50.408Z,17.60
2018-05-25T02:55:17.964Z,17.60
2018-05-25T02:57:45.483Z,17.60
2018-05-25T03:00:13.032Z,17.60
2018-05-25T03:02:40.561Z,17.50
2018-05-25T03:05:08.881Z,17.50
2018-05-25T03:07:36.415Z,17.40
2018-05-25T03:10:03.968Z,17.50
2018-05-25T03:12:32.264Z,17.40
2018-05-25T03:14:59.821Z,17.40
2018-05-25T03:17:27.341Z,17.40
2018-05-25T03:19:54.881Z,17.40
2018-05-25T03:22:22.414Z,17.40
2018-05-25T03:24:49.981Z,17.40
2018-05-25T03:27:17.497Z,17.50
2018-05-25T03:29:45.829Z,17.50
2018-05-25T03:32:13.357Z,17.40
2018-05-25T03:34:40.889Z,17.50
2018-05-25T03:37:09.214Z,17.50
2018-05-25T03:39:36.745Z,17.50
2018-05-25T03:42:04.297Z,17.50
2018-05-25T03:44:32.584Z,17.50
2018-05-25T03:47:00.148Z,17.40
2018-05-25T03:49:27.676Z,17.50
2018-05-25T03:51:55.234Z,17.50
2018-05-25T03:54:22.758Z,17.50
2018-05-25T03:56:50.312Z,17.50
2018-05-25T03:59:29.686Z,17.50
2018-05-25T04:01:57.835Z,17.50
2018-05-25T04:04:25.357Z,17.50
2018-05-25T04:06:52.907Z,17.50
2018-05-25T04:09:21.201Z,17.60
2018-05-25T04:11:49.584Z,17.50
2018-05-25T04:14:17.680Z,17.60
2018-05-25T04:16:45.233Z,17.60
2018-05-25T04:19:12.761Z,17.70
2018-05-25T04:21:41.072Z,17.70
2018-05-25T04:24:08.599Z,17.60
2018-05-25T04:26:36.914Z,17.70
2018-05-25T04:29:04.443Z,17.70
2018-05-25T04:31:32.005Z,17.70
2018-05-25T04:33:59.531Z,17.80
2018-05-25T04:36:27.093Z,17.80
2018-05-25T04:38:54.623Z,17.80
2018-05-25T04:41:22.188Z,17.90
2018-05-25T04:43:49.716Z,17.90
2018-05-25T04:46:17.272Z,17.90
2018-05-25T04:48:44.792Z,17.90
2018-05-25T04:51:12.336Z,18.00
2018-05-25T04:53:39.859Z,18.00
2018-05-25T04:56:07.404Z,18.10
2018-05-25T04:58:34.920Z,18.20
2018-05-25T05:01:02.440Z,18.20
2018-05-25T05:03:29.980Z,18.30
2018-05-25T05:05:57.509Z,18.30
2018-05-25T05:08:25.053Z,18.30
2018-05-25T05:10:52.571Z,18.40
2018-05-25T05:13:20.121Z,18.40
2018-05-25T05:15:47.653Z,18.40
2018-05-25T05:18:15.199Z,18.40
2018-05-25T05:20:42.724Z,18.40
2018-05-25T05:23:10.288Z,18.40
2018-05-25T05:25:37.888Z,18.50
2018-05-25T05:28:05.446Z,18.50
2018-05-25T05:30:33.552Z,18.50
2018-05-25T05:33:01.905Z,18.50
2018-05-25T05:35:29.430Z,18.50
2018-05-25T05:37:56.984Z,18.50
2018-05-25T05:40:24.969Z,18.50
2018-05-25T05:42:52.589Z,18.50
2018-05-25T05:45:20.341Z,18.60
2018-05-25T05:47:47.937Z,18.60
2018-05-25T05:50:15.468Z,18.60
2018-05-25T05:52:43.027Z,18.70
2018-05-25T05:55:10.579Z,18.70
2018-05-25T05:57:38.912Z,18.80
2018-05-25T06:00:06.445Z,18.70
2018-05-25T06:02:33.992Z,18.80
2018-05-25T06:05:01.527Z,18.90
2018-05-25T06:07:29.076Z,19.00
2018-05-25T06:09:56.597Z,19.00
2018-05-25T06:12:24.222Z,19.10
2018-05-25T06:14:51.713Z,19.10
2018-05-25T06:17:19.271Z,19.30
2018-05-25T06:19:46.789Z,19.30
2018-05-25T06:22:14.337Z,19.50
2018-05-25T06:24:41.868Z,19.60
2018-05-25T06:27:09.425Z,19.70
2018-05-25T06:29:36.987Z,19.90
2018-05-25T06:32:05.279Z,20.10
2018-05-25T06:34:32.823Z,20.00
2018-05-25T06:37:00.359Z,20.20
2018-05-25T06:39:27.913Z,20.30
2018-05-25T06:41:55.446Z,20.40
2018-05-25T06:44:23.008Z,20.60
2018-05-25T06:46:51.317Z,20.80
2018-05-25T06:49:18.875Z,20.80
2018-05-25T06:51:46.403Z,20.90
2018-05-25T06:54:13.964Z,21.00
2018-05-25T06:56:42.281Z,21.10
2018-05-25T06:59:09.833Z,21.00
2018-05-25T07:01:37.357Z,21.10
2018-05-25T07:04:04.920Z,21.10
2018-05-25T07:06:32.453Z,21.10
2018-05-25T07:08:59.995Z,21.10
2018-05-25T07:11:27.529Z,21.10
2018-05-25T07:13:55.087Z,21.20
2018-05-25T07:16:22.612Z,21.20
2018-05-25T07:18:50.159Z,21.20
2018-05-25T07:21:17.695Z,21.20
2018-05-25T07:23:45.243Z,21.20
2018-05-25T07:26:12.769Z,21.20
2018-05-25T07:28:41.093Z,21.20
2018-05-25T07:31:08.621Z,21.20
2018-05-25T07:33:36.944Z,21.20
2018-05-25T07:36:04.471Z,21.20
2018-05-25T07:38:32.016Z,21.30
2018-05-25T07:41:00.303Z,21.50
2018-05-25T07:43:27.861Z,21.40
2018-05-25T07:45:55.390Z,21.60
2018-05-25T07:48:22.949Z,21.70
2018-05-25T07:50:50.465Z,21.80
2018-05-25T07:53:18.026Z,21.80
2018-05-25T07:55:45.561Z,21.90
2018-05-25T07:58:13.890Z,22.10
2018-05-25T08:00:41.429Z,22.00
2018-05-25T08:03:08.962Z,22.10
2018-05-25T08:05:36.523Z,22.20
2018-05-25T08:08:04.056Z,22.30
2018-05-25T08:10:31.609Z,22.40
2018-05-25T08:12:59.135Z,22.50
2018-05-25T08:15:26.691Z,22.60
2018-05-25T08:17:54.211Z,22.60
2018-05-25T08:20:22.525Z,22.90
2018-05-25T08:22:50.057Z,22.80
2018-05-25T08:25:17.605Z,23.00
2018-05-25T08:27:45.904Z,23.20
2018-05-25T08:30:13.508Z,23.10
2018-05-25T08:32:41.011Z,23.20
2018-05-25T08:35:08.570Z,23.30
2018-05-25T08:37:36.859Z,23.40
2018-05-25T08:40:04.426Z,23.30
2018-05-25T08:42:31.957Z,23.40
2018-05-25T08:45:00.288Z,23.60
2018-05-25T08:47:27.819Z,23.60
2018-05-25T08:49:55.373Z,23.70
2018-05-25T08:52:22.910Z,23.80
2018-05-25T08:54:51.225Z,24.00
2018-05-25T08:57:18.749Z,23.90
2018-05-25T08:59:47.070Z,24.20
2018-05-25T09:02:14.611Z,24.10
2018-05-25T09:04:42.362Z,24.30
2018-05-25T09:07:09.716Z,24.40
2018-05-25T09:09:38.033Z,24.60
2018-05-25T09:12:05.556Z,24.60
2018-05-25T09:14:33.117Z,24.80
2018-05-25T09:17:01.411Z,25.10
2018-05-25T09:19:28.965Z,25.00
2018-05-25T09:21:56.547Z,25.10
2018-05-25T09:24:24.077Z,25.20
2018-05-25T09:26:52.377Z,25.40
2018-05-25T09:29:19.933Z,25.30
2018-05-25T09:31:47.471Z,25.40
2018-05-25T09:34:15.759Z,25.60
2018-05-25T09:36:43.333Z,25.50
2018-05-25T09:39:11.301Z,25.70
2018-05-25T09:41:38.862Z,25.80
2018-05-25T09:44:06.385Z,25.90
2018-05-25T09:46:33.965Z,25.90
2018-05-25T09:49:02.257Z,26.10
2018-05-25T09:51:29.812Z,26.00
2018-05-25T09:53:57.347Z,26.20
2018-05-25T09:56:25.712Z,26.30
2018-05-25T09:58:53.236Z,26.20
2018-05-25T10:01:20.784Z,26.20
2018-05-25T10:03:48.308Z,26.20
2018-05-25T10:06:16.626Z,26.20
2018-05-25T10:08:44.162Z,26.20
2018-05-25T10:11:11.732Z,26.30
2018-05-25T10:13:39.271Z,26.50
2018-05-25T10:16:06.797Z,26.70
2018-05-25T10:18:34.344Z,26.80
2018-05-25T10:21:01.877Z,26.80
2018-05-25T10:23:29.439Z,27.00
2018-05-25T10:25:57.726Z,27.30
2018-05-25T10:28:25.276Z,27.20
2018-05-25T10:30:52.811Z,27.40
2018-05-25T10:33:20.376Z,27.50
2018-05-25T10:35:47.929Z,27.50
2018-05-25T10:38:16.245Z,27.90
2018-05-25T10:40:43.781Z,27.80
2018-05-25T10:43:11.342Z,28.10
2018-05-25T10:45:38.886Z,28.20
2018-05-25T10:48:06.435Z,28.40
2018-05-25T10:50:33.956Z,28.50
2018-05-25T10:53:01.517Z,28.60
2018-05-25T10:55:29.050Z,28.70
2018-05-25T10:57:56.610Z,28.80
2018-05-25T11:00:24.133Z,29.00
2018-05-25T11:02:51.698Z,29.10
2018-05-25T11:05:19.220Z,29.20
2018-05-25T11:07:46.745Z,29.30
2018-05-25T11:10:14.318Z,29.30
2018-05-25T11:12:41.845Z,29.30
2018-05-25T11:15:09.391Z,29.20
2018-05-25T11:17:36.916Z,29.30
2018-05-25T11:20:04.465Z,29.40
2018-05-25T11:22:32.023Z,29.50
2018-05-25T11:24:59.577Z,29.70
2018-05-25T11:27:27.105Z,29.90
2018-05-25T11:29:55.421Z,30.20
2018-05-25T11:32:22.982Z,30.10
2018-05-25T11:34:50.533Z,30.20
2018-05-25T11:37:18.058Z,30.20
2018-05-25T11:39:46.381Z,30.10
2018-05-25T11:42:13.909Z,30.00
2018-05-25T11:44:42.230Z,30.60
2018-05-25T11:47:09.778Z,30.60
2018-05-25T11:49:37.319Z,30.90
2018-05-25T11:52:04.873Z,30.90
2018-05-25T11:54:33.160Z,30.50
2018-05-25T11:57:00.715Z,30.50
2018-05-25T11:59:28.253Z,30.70
2018-05-25T12:01:55.812Z,30.90
2018-05-25T12:04:24.121Z,31.20
2018-05-25T12:06:51.681Z,31.10
2018-05-25T12:09:19.204Z,31.40
2018-05-25T12:11:47.710Z,31.60
2018-05-25T12:14:15.358Z,31.70
2018-05-25T12:16:43.671Z,31.60
2018-05-25T12:19:11.193Z,31.50
2018-05-25T12:21:39.512Z,31.90
2018-05-25T12:24:07.040Z,31.80
2018-05-25T12:26:35.369Z,31.60
2018-05-25T12:29:02.892Z,31.50
2018-05-25T12:31:30.452Z,31.40
2018-05-25T12:33:57.980Z,31.10
2018-05-25T12:36:25.528Z,30.90
2018-05-25T12:38:53.055Z,30.70
2018-05-25T12:41:20.620Z,30.40
2018-05-25T12:43:48.152Z,30.10
2018-05-25T12:46:15.703Z,29.90
2018-05-25T12:48:43.998Z,29.70
2018-05-25T12:51:11.561Z,29.60
2018-05-25T12:53:39.089Z,29.60
2018-05-25T12:56:07.380Z,29.50
2018-05-25T12:58:35.697Z,29.40
2018-05-25T13:01:03.229Z,29.40
2018-05-25T13:03:30.785Z,29.40
2018-05-25T13:05:58.308Z,29.30
2018-05-25T13:08:25.873Z,29.30
2018-05-25T13:10:53.391Z,29.40
2018-05-25T13:13:20.937Z,29.50
2018-05-25T13:15:48.470Z,29.70
2018-05-25T13:18:16.781Z,30.10
2018-05-25T13:20:44.312Z,30.10
2018-05-25T13:23:12.622Z,30.50
2018-05-25T13:25:40.149Z,30.50
2018-05-25T13:28:07.703Z,30.60
2018-05-25T13:30:35.994Z,31.00
2018-05-25T13:33:03.549Z,31.00
2018-05-25T13:35:31.838Z,31.60
2018-05-25T13:37:59.389Z,31.50
2018-05-25T13:40:27.678Z,32.20
2018-05-25T13:42:55.224Z,32.20
2018-05-25T13:45:23.507Z,32.00
2018-05-25T13:47:51.826Z,31.90
2018-05-25T13:50:19.396Z,31.80
2018-05-25T13:52:46.948Z,31.70
2018-05-25T13:55:14.480Z,31.50
2018-05-25T13:57:42.033Z,31.30
2018-05-25T14:00:09.557Z,31.20
2018-05-25T14:02:37.107Z,31.30
2018-05-25T14:05:04.629Z,31.40
2018-05-25T14:07:32.200Z,31.30
2018-05-25T14:09:59.725Z,31.10
2018-05-25T14:12:28.024Z,30.90
2018-05-25T14:14:55.573Z,30.80
2018-05-25T14:17:23.095Z,30.90
2018-05-25T14:19:50.659Z,31.00
2018-05-25T14:22:18.181Z,30.80
2018-05-25T14:24:45.748Z,30.60
2018-05-25T14:27:13.280Z,30.50
2018-05-25T14:29:40.842Z,30.30
2018-05-25T14:32:08.364Z,30.10
2018-05-25T14:34:36.683Z,29.90
2018-05-25T14:37:04.216Z,29.80
2018-05-25T14:39:31.776Z,29.80
2018-05-25T14:42:00.163Z,29.60
2018-05-25T14:44:27.712Z,29.40
2018-05-25T14:46:56.004Z,29.30
2018-05-25T14:49:23.564Z,29.20
2018-05-25T14:51:51.098Z,29.10
2018-05-25T14:54:18.657Z,29.00
2018-05-25T14:56:46.189Z,28.90
2018-05-25T14:59:13.763Z,28.90
2018-05-25T15:01:41.289Z,28.90
2018-05-25T15:04:08.849Z,28.90
2018-05-25T15:06:36.408Z,28.80
2018-05-25T15:09:03.951Z,28.90
2018-05-25T15:11:31.477Z,28.80
2018-05-25T15:13:59.031Z,28.80
2018-05-25T15:16:26.560Z,28.80
2018-05-25T15:18:54.117Z,28.80
2018-05-25T15:21:21.648Z,28.80
2018-05-25T15:23:49.217Z,28.70
2018-05-25T15:26:16.744Z,28.70
2018-05-25T15:28:45.056Z,28.70
2018-05-25T15:31:12.592Z,28.60
2018-05-25T15:33:40.904Z,28.60
2018-05-25T15:36:08.437Z,28.50
2018-05-25T15:38:36.010Z,28.60
2018-05-25T15:41:03.539Z,28.70
2018-05-25T15:43:31.068Z,28.70
2018-05-25T15:45:58.629Z,28.80
2018-05-25T15:48:26.165Z,28.80
2018-05-25T15:50:53.735Z,28.70
2018-05-25T15:53:21.260Z,28.70
2018-05-25T15:55:48.812Z,28.70
2018-05-25T15:58:17.109Z,28.70
2018-05-25T16:00:44.662Z,28.70
2018-05-25T16:03:12.185Z,28.80
2018-05-25T16:05:39.740Z,28.70
2018-05-25T16:08:07.264Z,28.60
2018-05-25T16:10:34.812Z,28.60
2018-05-25T16:13:02.334Z,28.60
2018-05-25T16:15:30.657Z,28.60
2018-05-25T16:17:58.180Z,28.50
2018-05-25T16:20:26.497Z,28.40
2018-05-25T16:22:54.017Z,28.40
2018-05-25T16:25:22.332Z,28.30
2018-05-25T16:27:49.873Z,28.20
2018-05-25T16:30:17.430Z,28.20
2018-05-25T16:32:44.952Z,28.10
2018-05-25T16:35:12.510Z,28.10
2018-05-25T16:37:40.053Z,28.10
2018-05-25T16:40:07.633Z,28.10
2018-05-25T16:42:35.150Z,28.10
2018-05-25T16:45:02.708Z,28.10
2018-05-25T16:47:30.237Z,28.10
2018-05-25T16:49:58.553Z,28.10
2018-05-25T16:52:26.843Z,28.10
2018-05-25T16:54:54.392Z,28.00
2018-05-25T16:57:21.931Z,28.10
2018-05-25T16:59:49.495Z,28.00
2018-05-25T17:02:17.030Z,28.00
2018-05-25T17:04:45.358Z,27.90
2018-05-25T17:07:12.894Z,27.90
2018-05-25T17:09:40.460Z,27.80
2018-05-25T17:12:07.991Z,27.80
2018-05-25T17:14:36.280Z,27.80
2018-05-25T17:17:03.833Z,27.70
2018-05-25T17:19:32.116Z,27.80
2018-05-25T17:21:59.689Z,27.70
2018-05-25T17:24:27.242Z,27.70
2018-05-25T17:26:54.801Z,27.70
2018-05-25T17:29:22.374Z,27.70
2018-05-25T17:31:50.669Z,27.60
2018-05-25T17:34:18.961Z,27.50
2018-05-25T17:36:46.519Z,27.50
2018-05-25T17:39:14.045Z,27.40
2018-05-25T17:41:41.606Z,27.40
2018-05-25T17:44:09.135Z,27.40
2018-05-25T17:46:37.448Z,27.30
2018-05-25T17:49:04.977Z,27.30
2018-05-25T17:51:33.294Z,27.20
2018-05-25T17:54:00.824Z,27.20
2018-05-25T17:56:28.382Z,27.20
2018-05-25T17:58:55.920Z,27.10
2018-05-25T18:01:23.469Z,27.10
2018-05-25T18:03:50.999Z,27.00
2018-05-25T18:06:18.551Z,27.00
2018-05-25T18:08:46.072Z,26.90
2018-05-25T18:11:14.401Z,26.80
2018-05-25T18:13:41.930Z,26.80
2018-05-25T18:16:09.505Z,26.80
2018-05-25T18:18:37.034Z,26.70
2018-05-25T18:21:05.357Z,26.70
2018-05-25T18:23:32.913Z,26.60
2018-05-25T18:26:00.473Z,26.60
2018-05-25T18:28:28.002Z,26.50
2018-05-25T18:30:56.315Z,26.40
2018-05-25T18:33:23.839Z,26.40
2018-05-25T18:35:52.163Z,26.30
2018-05-25T18:38:19.708Z,26.20
2018-05-25T18:40:47.269Z,26.20
2018-05-25T18:43:14.792Z,26.10
2018-05-25T18:45:43.114Z,26.00
2018-05-25T18:48:10.668Z,25.90
2018-05-25T18:50:38.202Z,25.90
2018-05-25T18:53:06.520Z,25.70
2018-05-25T18:55:34.110Z,25.70
2018-05-25T18:58:01.674Z,25.70
2018-05-25T19:00:29.200Z,25.60
2018-05-25T19:02:56.756Z,25.60
2018-05-25T19:05:24.292Z,25.50
2018-05-25T19:07:51.844Z,25.50
2018-05-25T19:10:19.367Z,25.50
2018-05-25T19:12:46.920Z,25.50
2018-05-25T19:15:14.453Z,25.40
2018-05-25T19:17:42.008Z,25.40
2018-05-25T19:20:09.545Z,25.30
2018-05-25T19:22:37.102Z,25.30
2018-05-25T19:25:04.661Z,25.20
2018-05-25T19:27:32.986Z,25.10
2018-05-25T19:30:00.521Z,25.10
2018-05-25T19:32:28.158Z,25.10
2018-05-25T19:34:55.629Z,25.00
2018-05-25T19:37:23.176Z,24.90
2018-05-25T19:39:51.474Z,24.80
2018-05-25T19:42:19.027Z,24.80
2018-05-25T19:44:46.568Z,24.80
2018-05-25T19:47:14.893Z,24.80
2018-05-25T19:49:42.421Z,24.80
2018-05-25T19:52:09.972Z,24.70
2018-05-25T19:54:37.500Z,24.70
2018-05-25T19:57:05.059Z,24.70
2018-05-25T19:59:32.590Z,24.60
2018-05-25T20:02:00.150Z,24.60
2018-05-25T20:04:27.677Z,24.50
2018-05-25T20:06:55.241Z,24.50
2018-05-25T20:09:22.773Z,24.50
2018-05-25T20:11:51.102Z,24.40
2018-05-25T20:14:18.632Z,24.40
2018-05-25T20:16:46.152Z,24.40
2018-05-25T20:19:13.708Z,24.30
2018-05-25T20:21:41.242Z,24.30
2018-05-25T20:24:08.788Z,24.30
2018-05-25T20:26:36.326Z,24.30
2018-05-25T20:29:04.649Z,24.10
2018-05-25T20:31:32.176Z,24.10
2018-05-25T20:33:59.724Z,24.10
2018-05-25T20:36:28.017Z,24.00
2018-05-25T20:38:55.564Z,23.90
2018-05-25T20:41:23.093Z,24.00
2018-05-25T20:43:50.636Z,23.90
2018-05-25T20:46:18.159Z,23.90
2018-05-25T20:48:45.721Z,23.80
2018-05-25T20:51:13.245Z,23.80
2018-05-25T20:53:41.566Z,23.70
2018-05-25T20:56:09.093Z,23.60
2018-05-25T20:58:36.640Z,23.50
2018-05-25T21:01:04.202Z,23.40
2018-05-25T21:03:31.736Z,23.40
2018-05-25T21:05:59.287Z,23.30
2018-05-25T21:08:26.808Z,23.20
2018-05-25T21:10:54.361Z,23.10
2018-05-25T21:13:22.657Z,22.90
2018-05-25T21:15:50.212Z,22.80
2018-05-25T21:18:17.745Z,22.80
2018-05-25T21:20:45.306Z,22.80
2018-05-25T21:23:12.842Z,22.80
2018-05-25T21:25:40.393Z,22.70
2018-05-25T21:28:07.916Z,22.60
2018-05-25T21:30:35.460Z,22.60
2018-05-25T21:33:03.952Z,22.40
2018-05-25T21:35:31.553Z,22.40
2018-05-25T21:37:59.089Z,22.40
2018-05-25T21:40:26.617Z,22.30
2018-05-25T21:42:54.939Z,22.20
2018-05-25T21:45:22.466Z,22.10
2018-05-25T21:47:50.025Z,22.10
2018-05-25T21:50:17.553Z,22.10
2018-05-25T21:52:45.097Z,22.00
2018-05-25T21:55:12.624Z,22.00
2018-05-25T21:57:40.166Z,21.90
2018-05-25T22:00:07.695Z,21.90
2018-05-25T22:02:35.251Z,21.80
2018-05-25T22:05:02.779Z,21.80
2018-05-25T22:07:30.336Z,21.70
2018-05-25T22:09:57.861Z,21.60
2018-05-25T22:12:26.180Z,21.60
2018-05-25T22:14:53.704Z,21.50
2018-05-25T22:17:21.997Z,21.50
2018-05-25T22:19:49.593Z,21.40
2018-05-25T22:22:17.255Z,21.40
2018-05-25T22:24:44.861Z,21.40
2018-05-25T22:27:12.423Z,21.30
2018-05-25T22:29:40.016Z,21.30
2018-05-25T22:32:07.698Z,21.20
2018-05-25T22:34:35.444Z,21.20
2018-05-25T22:37:03.102Z,21.10
2018-05-25T22:39:30.689Z,21.10
2018-05-25T22:41:57.821Z,21.00
2018-05-25T22:44:37.260Z,20.90
2018-05-25T22:47:16.666Z,20.90
2018-05-25T22:49:56.694Z,20.70
2018-05-25T22:52:30.169Z,20.70
2018-05-25T22:54:57.961Z,20.70
2018-05-25T22:57:26.431Z,20.60
2018-05-25T22:59:54.117Z,20.50
2018-05-25T23:02:22.641Z,20.50
2018-05-25T23:04:50.370Z,20.40
2018-05-25T23:07:18.852Z,20.40
2018-05-25T23:09:47.452Z,20.30
2018-05-25T23:12:15.324Z,20.30
2018-05-25T23:14:43.312Z,20.20
2018-05-25T23:17:11.110Z,20.20
2018-05-25T23:19:38.914Z,20.10
2018-05-25T23:22:06.802Z,20.00
2018-05-25T23:24:34.336Z,20.00
2018-05-25T23:27:02.741Z,19.90
2018-05-25T23:29:31.239Z,19.90
2018-05-25T23:31:58.838Z,19.80
2018-05-25T23:34:27.283Z,19.90
2018-05-25T23:36:54.891Z,19.80
2018-05-25T23:39:22.445Z,19.90
2018-05-25T23:41:50.027Z,19.80
2018-05-25T23:44:18.349Z,19.80
2018-05-25T23:46:46.025Z,19.70
2018-05-25T23:49:13.561Z,19.70
2018-05-25T23:51:41.226Z,19.70
2018-05-25T23:54:08.777Z,19.60
2018-05-25T23:56:36.311Z,19.60
2018-05-25T23:59:04.624Z,19.40
